Colorado Springs, CO (80920)

9:02 PM MDT on August 26, 2016 (GMT -0600)
Briargate | | Change Station

Elev 6952 ft 38.96 °N, 104.76 °W | Updated 10 minutes ago

Mostly Cloudy
Mostly Cloudy
57.9 °F
Feels Like 57.9 °F
N
0.0
Wind Variable Wind from SE

Today
High -- | Low -- °F
--% Chance of Precip.
Yesterday
High -- | Low -- °F
Precip. -- in
Pressure 30.01 in
Visibility 10.0 miles
Clouds Few 1400 ft
Mostly Cloudy 11000 ft
Dew Point 49 °F
Humidity 73%
Rainfall 0.00 in
Snow Depth Not available.
6:23 AM 7:37 PM
Waning Crescent, 28% visible
METAR KAFF 270258Z AUTO 33003KT 10SM FEW014 BKN110 15/12 A3019 RMK AO2 RAB26E46 SLP163 P0001 60001 T01510118 52015
Pressure 30.01 in
Visibility 10.0 miles
Clouds Few 1400 ft
Mostly Cloudy 11000 ft
Dew Point 49 °F
Humidity 73%
Rainfall 0.00 in
Snow Depth Not available.
6:23 AM 7:37 PM
Waning Crescent, 28% visible
METAR KAFF 270258Z AUTO 33003KT 10SM FEW014 BKN110 15/12 A3019 RMK AO2 RAB26E46 SLP163 P0001 60001 T01510118 52015

10-Day Weather Forecast

Almanac

Astronomy

Aug. 26, 2016 Rise Set
Actual Time
Civil Twilight
Nautical Twilight
Astronomical Twilight
Moon
Length of Visible Light
Length of Day
Tomorrow will be .
, % of the Moon is Illuminated

Today's Extremes

State Highs State Lows

Community

WunderPhotos

Upload Photos

1,935,281 photos uploaded!

WunderBlog® & News

Nearby

Air Quality

  Air Quality AQ Index Pollutant
Not available.

Snow Depth

Station Depth Elevation

Earthquake Activity

City Distance Mag. Time & Date
Minimum magnitude displayed is 2.5.

Coastal Water Temperatures

Place Temperature

Stations

Nearby Weather Stations

Station Location Temp. Windchill Dew Point Humidity Wind Precip. Elev Updated Type
                   

Watches & Warnings

There are currently no watches in effect.